FIN46J EGCC-EKCH
Flight info
| Callsign | FIN46J |
|---|---|
| Flight time | 1h 20m |
| Altitude | 37000 |
| Route | DESI1S DESIG L603 LAMIX UT29 LIBSO UL975 ERDOW DCT ROPAL DCT LESRA DCT TESPI TESP4A |
| Aircraft | A321/M-SDE3FGHIRWY/LB1 |
Departure
| Time | 2026-05-06 13:30 |
|---|---|
| Airport | Manchester Airport (EGCC) |
Arrival
| Time | 2026-05-06 14:50 |
|---|---|
| Airport | Copenhagen Kastrup Airport (EKCH) |
| Time | Latitude | Longitude | Altitude | Speed | Heading |
|---|---|---|---|---|---|
| 2026-05-06 13:05 | 53.36693 | -2.28463 | 255 ft | 0 kts | 135° |
| 2026-05-06 13:18 | 53.36702 | -2.28477 | 255 ft | 3 kts | 135° |
| 2026-05-06 13:18 | 53.36715 | -2.28500 | 255 ft | 3 kts | 135° |
| 2026-05-06 13:18 | 53.36729 | -2.28518 | 255 ft | 1 kts | 153° |
| 2026-05-06 13:18 | 53.36746 | -2.28527 | 255 ft | 3 kts | 187° |
| 2026-05-06 13:19 | 53.36762 | -2.28516 | 255 ft | 2 kts | 224° |
| 2026-05-06 13:19 | 53.36764 | -2.28514 | 255 ft | 0 kts | 224° |
| 2026-05-06 13:22 | 53.36762 | -2.28517 | 255 ft | 2 kts | 224° |
| 2026-05-06 13:22 | 53.36738 | -2.28555 | 255 ft | 6 kts | 224° |
| 2026-05-06 13:22 | 53.36706 | -2.28610 | 255 ft | 8 kts | 224° |
| 2026-05-06 13:22 | 53.36664 | -2.28678 | 255 ft | 9 kts | 226° |
| 2026-05-06 13:23 | 53.36628 | -2.28774 | 255 ft | 9 kts | 230° |
| 2026-05-06 13:23 | 53.36579 | -2.28759 | 255 ft | 9 kts | 137° |
| 2026-05-06 13:23 | 53.36533 | -2.28679 | 255 ft | 10 kts | 134° |
| 2026-05-06 13:23 | 53.36478 | -2.28586 | 255 ft | 12 kts | 135° |
| 2026-05-06 13:24 | 53.36411 | -2.28494 | 255 ft | 13 kts | 156° |
| 2026-05-06 13:24 | 53.36327 | -2.28439 | 255 ft | 13 kts | 141° |
| 2026-05-06 13:24 | 53.36257 | -2.28324 | 255 ft | 15 kts | 135° |
| 2026-05-06 13:24 | 53.36181 | -2.28195 | 255 ft | 16 kts | 135° |
| 2026-05-06 13:25 | 53.36098 | -2.28056 | 255 ft | 18 kts | 137° |
| 2026-05-06 13:25 | 53.36023 | -2.27945 | 255 ft | 14 kts | 139° |
| 2026-05-06 13:25 | 53.35943 | -2.27853 | 255 ft | 14 kts | 163° |
| 2026-05-06 13:25 | 53.35841 | -2.27858 | 252 ft | 17 kts | 184° |
| 2026-05-06 13:26 | 53.35706 | -2.27877 | 245 ft | 22 kts | 187° |
| 2026-05-06 13:26 | 53.35549 | -2.27913 | 237 ft | 24 kts | 186° |
| 2026-05-06 13:26 | 53.35438 | -2.27956 | 238 ft | 17 kts | 215° |
| 2026-05-06 13:26 | 53.35345 | -2.28100 | 239 ft | 19 kts | 224° |
| 2026-05-06 13:27 | 53.35245 | -2.28274 | 232 ft | 18 kts | 230° |
| 2026-05-06 13:27 | 53.35168 | -2.28432 | 228 ft | 19 kts | 231° |
| 2026-05-06 13:27 | 53.35084 | -2.28606 | 229 ft | 18 kts | 231° |
| 2026-05-06 13:27 | 53.34995 | -2.28776 | 227 ft | 21 kts | 226° |
| 2026-05-06 13:28 | 53.34889 | -2.28962 | 222 ft | 22 kts | 226° |
| 2026-05-06 13:28 | 53.34784 | -2.29160 | 219 ft | 20 kts | 230° |
| 2026-05-06 13:28 | 53.34689 | -2.29317 | 213 ft | 18 kts | 208° |
| 2026-05-06 13:28 | 53.34586 | -2.29328 | 213 ft | 15 kts | 160° |
| 2026-05-06 13:29 | 53.34549 | -2.29211 | 220 ft | 14 kts | 66° |
| 2026-05-06 13:29 | 53.34669 | -2.28954 | 227 ft | 56 kts | 51° |
| 2026-05-06 13:29 | 53.35070 | -2.28129 | 236 ft | 125 kts | 51° |
| 2026-05-06 13:29 | 53.35730 | -2.26773 | 375 ft | 165 kts | 50° |
| 2026-05-06 13:30 | 53.36451 | -2.25287 | 1158 ft | 163 kts | 51° |
| 2026-05-06 13:30 | 53.37167 | -2.23781 | 1844 ft | 170 kts | 52° |
| 2026-05-06 13:30 | 53.37934 | -2.22154 | 2147 ft | 191 kts | 52° |
| 2026-05-06 13:30 | 53.38802 | -2.20314 | 2357 ft | 213 kts | 52° |
| 2026-05-06 13:31 | 53.39777 | -2.18242 | 2629 ft | 239 kts | 52° |
| 2026-05-06 13:31 | 53.40834 | -2.15996 | 3347 ft | 249 kts | 52° |
| 2026-05-06 13:31 | 53.41913 | -2.13703 | 4261 ft | 252 kts | 52° |
| 2026-05-06 13:31 | 53.43005 | -2.11384 | 5150 ft | 256 kts | 52° |
| 2026-05-06 13:32 | 53.44114 | -2.09021 | 6028 ft | 259 kts | 51° |
| 2026-05-06 13:32 | 53.45234 | -2.06628 | 6868 ft | 263 kts | 50° |
| 2026-05-06 13:32 | 53.46374 | -2.04195 | 7666 ft | 268 kts | 50° |
| 2026-05-06 13:32 | 53.47522 | -2.01745 | 8424 ft | 273 kts | 50° |
| 2026-05-06 13:33 | 53.48711 | -1.99214 | 9209 ft | 278 kts | 49° |
| 2026-05-06 13:33 | 53.49928 | -1.96648 | 9966 ft | 284 kts | 50° |
| 2026-05-06 13:33 | 53.51237 | -1.94066 | 10379 ft | 300 kts | 39° |
| 2026-05-06 13:33 | 53.53104 | -1.92379 | 10574 ft | 317 kts | 15° |
| 2026-05-06 13:34 | 53.55237 | -1.91081 | 10966 ft | 331 kts | 29° |
| 2026-05-06 13:34 | 53.56904 | -1.88407 | 11740 ft | 339 kts | 56° |
| 2026-05-06 13:34 | 53.57680 | -1.84650 | 12461 ft | 347 kts | 84° |
| 2026-05-06 13:34 | 53.57357 | -1.80610 | 13154 ft | 354 kts | 111° |
| 2026-05-06 13:35 | 53.56004 | -1.77146 | 13825 ft | 359 kts | 133° |
| 2026-05-06 13:35 | 53.54294 | -1.74104 | 14245 ft | 371 kts | 133° |
| 2026-05-06 13:35 | 53.52547 | -1.70824 | 14666 ft | 381 kts | 131° |
| 2026-05-06 13:35 | 53.50867 | -1.67353 | 15281 ft | 385 kts | 127° |
| 2026-05-06 13:36 | 53.49542 | -1.63432 | 15901 ft | 389 kts | 110° |
| 2026-05-06 13:36 | 53.48955 | -1.59001 | 16541 ft | 391 kts | 92° |
| 2026-05-06 13:36 | 53.49198 | -1.54453 | 17165 ft | 393 kts | 73° |
| 2026-05-06 13:36 | 53.50012 | -1.50058 | 17784 ft | 396 kts | 70° |
| 2026-05-06 13:37 | 53.50869 | -1.45638 | 18413 ft | 400 kts | 70° |
| 2026-05-06 13:37 | 53.51734 | -1.41169 | 18954 ft | 404 kts | 71° |
| 2026-05-06 13:37 | 53.52590 | -1.36720 | 19514 ft | 407 kts | 71° |
| 2026-05-06 13:37 | 53.53458 | -1.32165 | 20075 ft | 411 kts | 71° |
| 2026-05-06 13:38 | 53.54330 | -1.27568 | 20650 ft | 414 kts | 71° |
| 2026-05-06 13:38 | 53.55207 | -1.22931 | 21208 ft | 418 kts | 71° |
| 2026-05-06 13:38 | 53.56087 | -1.18243 | 21751 ft | 421 kts | 71° |
| 2026-05-06 13:38 | 53.56968 | -1.13522 | 22275 ft | 425 kts | 72° |
| 2026-05-06 13:39 | 53.57855 | -1.08761 | 22769 ft | 429 kts | 72° |
| 2026-05-06 13:39 | 53.58762 | -1.03908 | 22919 ft | 441 kts | 72° |
| 2026-05-06 13:39 | 53.59799 | -0.99009 | 23170 ft | 448 kts | 63° |
| 2026-05-06 13:39 | 53.61300 | -0.94469 | 23542 ft | 452 kts | 59° |
| 2026-05-06 13:40 | 53.62880 | -0.89870 | 23922 ft | 455 kts | 59° |
| 2026-05-06 13:40 | 53.64474 | -0.85240 | 24306 ft | 458 kts | 59° |
| 2026-05-06 13:40 | 53.66077 | -0.80579 | 24697 ft | 461 kts | 59° |
| 2026-05-06 13:40 | 53.67687 | -0.75889 | 25099 ft | 464 kts | 59° |
| 2026-05-06 13:41 | 53.69307 | -0.71157 | 25482 ft | 466 kts | 59° |
| 2026-05-06 13:41 | 53.70930 | -0.66400 | 25852 ft | 469 kts | 59° |
| 2026-05-06 13:41 | 53.72558 | -0.61612 | 26224 ft | 472 kts | 59° |
| 2026-05-06 13:41 | 53.74193 | -0.56793 | 26616 ft | 474 kts | 59° |
| 2026-05-06 13:42 | 53.75813 | -0.52004 | 26977 ft | 478 kts | 59° |
| 2026-05-06 13:42 | 53.77463 | -0.47115 | 27317 ft | 481 kts | 59° |
| 2026-05-06 13:42 | 53.79125 | -0.42182 | 27674 ft | 484 kts | 59° |
| 2026-05-06 13:42 | 53.80789 | -0.37232 | 28107 ft | 484 kts | 59° |
| 2026-05-06 13:43 | 53.82455 | -0.32284 | 28612 ft | 484 kts | 59° |
| 2026-05-06 13:43 | 53.84116 | -0.27340 | 29109 ft | 483 kts | 60° |
| 2026-05-06 13:43 | 53.85774 | -0.22395 | 29611 ft | 483 kts | 60° |
| 2026-05-06 13:43 | 53.87429 | -0.17450 | 30109 ft | 483 kts | 60° |
| 2026-05-06 13:44 | 53.89084 | -0.12496 | 30531 ft | 482 kts | 60° |
| 2026-05-06 13:44 | 53.90709 | -0.07617 | 30930 ft | 482 kts | 60° |
| 2026-05-06 13:44 | 53.92349 | -0.02673 | 31361 ft | 481 kts | 60° |
| 2026-05-06 13:44 | 53.93988 | 0.02276 | 31759 ft | 480 kts | 60° |
| 2026-05-06 13:45 | 53.95618 | 0.07210 | 32177 ft | 480 kts | 60° |
| 2026-05-06 13:45 | 53.98870 | 0.17101 | 32990 ft | 479 kts | 60° |
| 2026-05-06 13:45 | 54.00492 | 0.22039 | 33401 ft | 479 kts | 60° |
| 2026-05-06 13:46 | 54.02113 | 0.26977 | 33790 ft | 478 kts | 60° |
| 2026-05-06 13:46 | 54.03735 | 0.31924 | 34159 ft | 478 kts | 60° |
| 2026-05-06 13:46 | 54.05330 | 0.36797 | 34477 ft | 478 kts | 60° |
| 2026-05-06 13:46 | 54.06944 | 0.41739 | 34774 ft | 478 kts | 60° |
| 2026-05-06 13:47 | 54.08555 | 0.46686 | 35074 ft | 478 kts | 60° |
| 2026-05-06 13:47 | 54.10162 | 0.51637 | 35374 ft | 478 kts | 60° |
| 2026-05-06 13:47 | 54.11768 | 0.56589 | 35658 ft | 478 kts | 60° |
| 2026-05-06 13:47 | 54.13375 | 0.61557 | 35945 ft | 478 kts | 60° |
| 2026-05-06 13:48 | 54.14977 | 0.66521 | 36245 ft | 478 kts | 60° |
| 2026-05-06 13:48 | 54.16577 | 0.71485 | 36527 ft | 478 kts | 60° |
| 2026-05-06 13:48 | 54.18176 | 0.76450 | 36796 ft | 477 kts | 60° |
| 2026-05-06 13:48 | 54.19755 | 0.81362 | 37002 ft | 478 kts | 60° |
| 2026-05-06 13:49 | 54.22955 | 0.91360 | 37045 ft | 481 kts | 61° |
| 2026-05-06 13:49 | 54.26153 | 1.01402 | 37046 ft | 481 kts | 61° |
| 2026-05-06 13:50 | 54.29347 | 1.11489 | 37059 ft | 482 kts | 61° |
| 2026-05-06 13:50 | 54.32531 | 1.21582 | 37039 ft | 482 kts | 61° |
| 2026-05-06 13:51 | 54.35690 | 1.31632 | 37054 ft | 482 kts | 61° |
| 2026-05-06 13:51 | 54.38865 | 1.41768 | 37060 ft | 483 kts | 61° |
| 2026-05-06 13:52 | 54.42040 | 1.51935 | 37062 ft | 483 kts | 62° |
| 2026-05-06 13:52 | 54.45204 | 1.62114 | 37064 ft | 483 kts | 62° |
| 2026-05-06 13:53 | 54.48341 | 1.72258 | 37064 ft | 484 kts | 62° |
| 2026-05-06 13:53 | 54.51490 | 1.82486 | 37073 ft | 484 kts | 62° |
| 2026-05-06 13:54 | 54.54637 | 1.92749 | 37070 ft | 485 kts | 62° |
| 2026-05-06 13:54 | 54.57768 | 2.03033 | 37067 ft | 485 kts | 62° |
| 2026-05-06 13:55 | 54.60873 | 2.13269 | 37074 ft | 485 kts | 62° |
| 2026-05-06 13:55 | 54.64002 | 2.23593 | 37067 ft | 485 kts | 62° |
| 2026-05-06 13:56 | 54.67129 | 2.33928 | 37069 ft | 485 kts | 62° |
| 2026-05-06 13:56 | 54.70240 | 2.44278 | 37062 ft | 485 kts | 62° |
| 2026-05-06 13:57 | 54.73310 | 2.54590 | 37089 ft | 486 kts | 63° |
| 2026-05-06 13:57 | 54.76394 | 2.64997 | 37071 ft | 486 kts | 63° |
| 2026-05-06 13:58 | 54.79491 | 2.75420 | 37059 ft | 487 kts | 63° |
| 2026-05-06 13:58 | 54.82576 | 2.85863 | 37058 ft | 487 kts | 63° |
| 2026-05-06 13:59 | 54.85626 | 2.96276 | 37062 ft | 487 kts | 63° |
| 2026-05-06 13:59 | 54.88691 | 3.06767 | 37062 ft | 487 kts | 63° |
| 2026-05-06 14:00 | 54.91753 | 3.17273 | 37064 ft | 488 kts | 63° |
| 2026-05-06 14:00 | 54.94801 | 3.27815 | 37055 ft | 488 kts | 63° |
| 2026-05-06 14:01 | 54.97840 | 3.38374 | 37073 ft | 488 kts | 63° |
| 2026-05-06 14:01 | 55.00856 | 3.48875 | 37057 ft | 488 kts | 63° |
| 2026-05-06 14:02 | 55.03887 | 3.59478 | 37067 ft | 489 kts | 63° |
| 2026-05-06 14:02 | 55.06909 | 3.70094 | 37054 ft | 489 kts | 64° |
| 2026-05-06 14:03 | 55.09919 | 3.80734 | 37055 ft | 489 kts | 64° |
| 2026-05-06 14:03 | 55.12896 | 3.91326 | 37057 ft | 489 kts | 64° |
| 2026-05-06 14:04 | 55.15765 | 4.02108 | 37062 ft | 489 kts | 67° |
| 2026-05-06 14:04 | 55.18353 | 4.13108 | 37059 ft | 489 kts | 69° |
| 2026-05-06 14:05 | 55.20875 | 4.24152 | 37058 ft | 489 kts | 68° |
| 2026-05-06 14:05 | 55.23453 | 4.35179 | 37058 ft | 490 kts | 68° |
| 2026-05-06 14:06 | 55.26046 | 4.46139 | 37049 ft | 490 kts | 68° |
| 2026-05-06 14:06 | 55.28654 | 4.57184 | 37050 ft | 490 kts | 68° |
| 2026-05-06 14:07 | 55.31244 | 4.68244 | 37059 ft | 490 kts | 68° |
| 2026-05-06 14:07 | 55.33816 | 4.79335 | 37045 ft | 490 kts | 69° |
| 2026-05-06 14:08 | 55.36350 | 4.90364 | 37055 ft | 490 kts | 69° |
| 2026-05-06 14:08 | 55.38713 | 5.01584 | 37045 ft | 489 kts | 77° |
| 2026-05-06 14:09 | 55.40098 | 5.13272 | 37047 ft | 488 kts | 80° |
| 2026-05-06 14:09 | 55.41443 | 5.24989 | 37054 ft | 488 kts | 80° |
| 2026-05-06 14:10 | 55.42782 | 5.36714 | 37043 ft | 489 kts | 80° |
| 2026-05-06 14:10 | 55.44102 | 5.48395 | 37040 ft | 490 kts | 80° |
| 2026-05-06 14:11 | 55.45424 | 5.60167 | 37026 ft | 490 kts | 80° |
| 2026-05-06 14:11 | 55.46725 | 5.71944 | 37044 ft | 490 kts | 81° |
| 2026-05-06 14:12 | 55.48010 | 5.83721 | 37043 ft | 489 kts | 81° |
| 2026-05-06 14:12 | 55.49286 | 5.95431 | 37041 ft | 489 kts | 81° |
| 2026-05-06 14:13 | 55.50568 | 6.07210 | 37038 ft | 489 kts | 81° |
| 2026-05-06 14:13 | 55.51839 | 6.19006 | 37025 ft | 489 kts | 81° |
| 2026-05-06 14:14 | 55.53082 | 6.30799 | 37030 ft | 489 kts | 81° |
| 2026-05-06 14:14 | 55.54300 | 6.42529 | 37031 ft | 489 kts | 81° |
| 2026-05-06 14:15 | 55.55520 | 6.54332 | 37027 ft | 489 kts | 81° |
| 2026-05-06 14:15 | 55.56737 | 6.66138 | 37021 ft | 489 kts | 81° |
| 2026-05-06 14:16 | 55.57940 | 6.77963 | 37017 ft | 489 kts | 82° |
| 2026-05-06 14:16 | 55.59121 | 6.89784 | 37038 ft | 489 kts | 82° |
| 2026-05-06 14:17 | 55.60293 | 7.01547 | 37016 ft | 489 kts | 82° |
| 2026-05-06 14:17 | 55.61468 | 7.13398 | 37017 ft | 489 kts | 82° |
| 2026-05-06 14:18 | 55.62627 | 7.25256 | 37011 ft | 489 kts | 82° |
| 2026-05-06 14:18 | 55.63769 | 7.37124 | 36999 ft | 489 kts | 82° |
| 2026-05-06 14:19 | 55.64890 | 7.48929 | 36999 ft | 489 kts | 82° |
| 2026-05-06 14:19 | 55.66011 | 7.60808 | 37005 ft | 489 kts | 83° |
| 2026-05-06 14:20 | 55.67121 | 7.72701 | 36998 ft | 489 kts | 83° |
| 2026-05-06 14:20 | 55.68221 | 7.84591 | 36998 ft | 489 kts | 83° |
| 2026-05-06 14:21 | 55.69303 | 7.96494 | 36985 ft | 489 kts | 83° |
| 2026-05-06 14:21 | 55.70365 | 8.08311 | 36989 ft | 489 kts | 83° |
| 2026-05-06 14:22 | 55.71438 | 8.20222 | 36987 ft | 489 kts | 83° |
| 2026-05-06 14:22 | 55.72493 | 8.32129 | 36987 ft | 489 kts | 83° |
| 2026-05-06 14:23 | 55.73535 | 8.44044 | 36979 ft | 489 kts | 83° |
| 2026-05-06 14:23 | 55.74554 | 8.55881 | 36958 ft | 489 kts | 84° |
| 2026-05-06 14:24 | 55.75569 | 8.67812 | 36970 ft | 489 kts | 84° |
| 2026-05-06 14:24 | 55.76578 | 8.79736 | 36969 ft | 488 kts | 84° |
| 2026-05-06 14:25 | 55.77580 | 8.91672 | 36971 ft | 488 kts | 84° |
| 2026-05-06 14:25 | 55.78554 | 9.03556 | 36602 ft | 482 kts | 84° |
| 2026-05-06 14:26 | 55.79024 | 9.09355 | 36359 ft | 480 kts | 84° |
| 2026-05-06 14:26 | 55.79499 | 9.15218 | 36016 ft | 478 kts | 84° |
| 2026-05-06 14:26 | 55.79972 | 9.21059 | 35481 ft | 477 kts | 84° |
| 2026-05-06 14:26 | 55.80442 | 9.26889 | 34935 ft | 476 kts | 84° |
| 2026-05-06 14:27 | 55.80908 | 9.32715 | 34399 ft | 476 kts | 85° |
| 2026-05-06 14:27 | 55.81371 | 9.38546 | 33850 ft | 476 kts | 85° |
| 2026-05-06 14:27 | 55.81827 | 9.44371 | 33232 ft | 476 kts | 85° |
| 2026-05-06 14:27 | 55.82277 | 9.50200 | 32637 ft | 476 kts | 85° |
| 2026-05-06 14:28 | 55.82726 | 9.56039 | 32046 ft | 476 kts | 85° |
| 2026-05-06 14:28 | 55.83167 | 9.61785 | 31458 ft | 474 kts | 85° |
| 2026-05-06 14:28 | 55.83612 | 9.67586 | 30910 ft | 471 kts | 85° |
| 2026-05-06 14:28 | 55.84052 | 9.73340 | 30345 ft | 468 kts | 86° |
| 2026-05-06 14:29 | 55.84488 | 9.79055 | 29774 ft | 465 kts | 86° |
| 2026-05-06 14:29 | 55.84872 | 9.84734 | 29139 ft | 459 kts | 91° |
| 2026-05-06 14:29 | 55.84652 | 9.90305 | 28517 ft | 447 kts | 106° |
| 2026-05-06 14:29 | 55.83878 | 9.95621 | 27799 ft | 443 kts | 110° |
| 2026-05-06 14:30 | 55.83057 | 10.00901 | 27083 ft | 443 kts | 110° |
| 2026-05-06 14:30 | 55.82225 | 10.06167 | 26383 ft | 442 kts | 110° |
| 2026-05-06 14:30 | 55.81400 | 10.11351 | 25730 ft | 441 kts | 110° |
| 2026-05-06 14:30 | 55.80565 | 10.16578 | 25155 ft | 438 kts | 109° |
| 2026-05-06 14:31 | 55.79739 | 10.21771 | 24616 ft | 434 kts | 109° |
| 2026-05-06 14:31 | 55.78924 | 10.26912 | 24093 ft | 431 kts | 109° |
| 2026-05-06 14:31 | 55.78115 | 10.32014 | 23595 ft | 428 kts | 109° |
| 2026-05-06 14:31 | 55.77310 | 10.37075 | 23056 ft | 424 kts | 109° |
| 2026-05-06 14:32 | 55.76505 | 10.42104 | 22507 ft | 421 kts | 109° |
| 2026-05-06 14:32 | 55.75705 | 10.47086 | 21992 ft | 418 kts | 109° |
| 2026-05-06 14:32 | 55.74910 | 10.52027 | 21488 ft | 415 kts | 109° |
| 2026-05-06 14:32 | 55.74127 | 10.56865 | 21000 ft | 412 kts | 109° |
| 2026-05-06 14:33 | 55.73335 | 10.61730 | 20518 ft | 409 kts | 109° |
| 2026-05-06 14:33 | 55.72548 | 10.66555 | 20062 ft | 405 kts | 108° |
| 2026-05-06 14:33 | 55.71770 | 10.71323 | 19623 ft | 400 kts | 108° |
| 2026-05-06 14:33 | 55.71000 | 10.76040 | 19177 ft | 396 kts | 108° |
| 2026-05-06 14:34 | 55.70236 | 10.80715 | 18740 ft | 392 kts | 108° |
| 2026-05-06 14:34 | 55.69478 | 10.85336 | 18318 ft | 389 kts | 108° |
| 2026-05-06 14:34 | 55.68723 | 10.89915 | 17842 ft | 385 kts | 108° |
| 2026-05-06 14:34 | 55.67973 | 10.94454 | 17381 ft | 383 kts | 108° |
| 2026-05-06 14:35 | 55.67236 | 10.98897 | 16935 ft | 380 kts | 108° |
| 2026-05-06 14:35 | 55.66489 | 11.03365 | 16490 ft | 377 kts | 108° |
| 2026-05-06 14:35 | 55.65747 | 11.07808 | 16052 ft | 374 kts | 108° |
| 2026-05-06 14:35 | 55.65012 | 11.12211 | 15616 ft | 372 kts | 108° |
| 2026-05-06 14:36 | 55.64281 | 11.16587 | 15191 ft | 370 kts | 108° |
| 2026-05-06 14:36 | 55.63553 | 11.20936 | 14772 ft | 367 kts | 108° |
| 2026-05-06 14:36 | 55.62828 | 11.25260 | 14351 ft | 364 kts | 108° |
| 2026-05-06 14:36 | 55.62109 | 11.29522 | 13958 ft | 359 kts | 108° |
| 2026-05-06 14:37 | 55.61406 | 11.33655 | 13603 ft | 352 kts | 108° |
| 2026-05-06 14:37 | 55.60706 | 11.37766 | 13224 ft | 346 kts | 108° |
| 2026-05-06 14:37 | 55.60018 | 11.41809 | 12852 ft | 341 kts | 107° |
| 2026-05-06 14:37 | 55.59340 | 11.45787 | 12480 ft | 335 kts | 107° |
| 2026-05-06 14:38 | 55.58670 | 11.49712 | 12116 ft | 331 kts | 107° |
| 2026-05-06 14:38 | 55.58009 | 11.53576 | 11755 ft | 326 kts | 107° |
| 2026-05-06 14:38 | 55.57355 | 11.57386 | 11400 ft | 322 kts | 107° |
| 2026-05-06 14:38 | 55.56707 | 11.61147 | 11046 ft | 318 kts | 107° |
| 2026-05-06 14:39 | 55.56065 | 11.64864 | 10695 ft | 315 kts | 107° |
| 2026-05-06 14:39 | 55.55428 | 11.68553 | 10334 ft | 312 kts | 107° |
| 2026-05-06 14:39 | 55.54806 | 11.72158 | 9970 ft | 310 kts | 107° |
| 2026-05-06 14:39 | 55.54180 | 11.75776 | 9598 ft | 306 kts | 107° |
| 2026-05-06 14:40 | 55.53560 | 11.79350 | 9222 ft | 303 kts | 106° |
| 2026-05-06 14:40 | 55.52945 | 11.82893 | 8835 ft | 300 kts | 106° |
| 2026-05-06 14:40 | 55.52337 | 11.86398 | 8432 ft | 296 kts | 107° |
| 2026-05-06 14:40 | 55.51743 | 11.89805 | 8062 ft | 285 kts | 106° |
| 2026-05-06 14:41 | 55.51172 | 11.93076 | 7739 ft | 274 kts | 106° |
| 2026-05-06 14:41 | 55.50613 | 11.96268 | 7413 ft | 271 kts | 106° |
| 2026-05-06 14:41 | 55.50058 | 11.99432 | 7105 ft | 267 kts | 106° |
| 2026-05-06 14:41 | 55.49524 | 12.02460 | 6805 ft | 257 kts | 106° |
| 2026-05-06 14:42 | 55.49003 | 12.05413 | 6506 ft | 248 kts | 105° |
| 2026-05-06 14:42 | 55.48498 | 12.08260 | 6201 ft | 239 kts | 105° |
| 2026-05-06 14:42 | 55.48009 | 12.11017 | 5875 ft | 233 kts | 105° |
| 2026-05-06 14:42 | 55.47528 | 12.13740 | 5537 ft | 232 kts | 105° |
| 2026-05-06 14:43 | 55.47055 | 12.16426 | 5188 ft | 228 kts | 105° |
| 2026-05-06 14:43 | 55.46584 | 12.19083 | 4825 ft | 226 kts | 105° |
| 2026-05-06 14:43 | 55.46119 | 12.21701 | 4461 ft | 222 kts | 104° |
| 2026-05-06 14:43 | 55.45665 | 12.24253 | 4096 ft | 220 kts | 106° |
| 2026-05-06 14:44 | 55.45210 | 12.26794 | 3758 ft | 215 kts | 106° |
| 2026-05-06 14:44 | 55.44763 | 12.29285 | 3467 ft | 211 kts | 106° |
| 2026-05-06 14:44 | 55.44328 | 12.31715 | 3155 ft | 204 kts | 106° |
| 2026-05-06 14:45 | 55.44357 | 12.36417 | 3003 ft | 194 kts | 71° |
| 2026-05-06 14:45 | 55.45039 | 12.38473 | 3002 ft | 197 kts | 53° |
| 2026-05-06 14:45 | 55.46049 | 12.40125 | 3005 ft | 198 kts | 44° |
| 2026-05-06 14:45 | 55.47047 | 12.41643 | 2995 ft | 185 kts | 45° |
| 2026-05-06 14:46 | 55.48007 | 12.43112 | 2937 ft | 181 kts | 45° |
| 2026-05-06 14:46 | 55.48951 | 12.44558 | 2754 ft | 178 kts | 45° |
| 2026-05-06 14:46 | 55.49881 | 12.45985 | 2523 ft | 177 kts | 46° |
| 2026-05-06 14:46 | 55.50793 | 12.47381 | 2310 ft | 169 kts | 46° |
| 2026-05-06 14:47 | 55.51659 | 12.48710 | 2066 ft | 161 kts | 46° |
| 2026-05-06 14:47 | 55.52491 | 12.49987 | 1844 ft | 156 kts | 46° |
| 2026-05-06 14:47 | 55.53291 | 12.51217 | 1639 ft | 148 kts | 47° |
| 2026-05-06 14:47 | 55.54045 | 12.52375 | 1455 ft | 139 kts | 47° |
| 2026-05-06 14:48 | 55.54753 | 12.53466 | 1283 ft | 135 kts | 47° |
| 2026-05-06 14:48 | 55.55464 | 12.54562 | 1093 ft | 136 kts | 47° |
| 2026-05-06 14:48 | 55.56176 | 12.55659 | 879 ft | 136 kts | 47° |
| 2026-05-06 14:48 | 55.56893 | 12.56765 | 691 ft | 138 kts | 46° |
| 2026-05-06 14:49 | 55.57616 | 12.57879 | 493 ft | 138 kts | 47° |
| 2026-05-06 14:49 | 55.58334 | 12.58988 | 305 ft | 137 kts | 47° |
| 2026-05-06 14:49 | 55.59058 | 12.60094 | 106 ft | 138 kts | 46° |
| 2026-05-06 14:49 | 55.59758 | 12.61182 | 25 ft | 122 kts | 43° |
| 2026-05-06 14:50 | 55.60277 | 12.61984 | 24 ft | 75 kts | 40° |
| 2026-05-06 14:50 | 55.60502 | 12.62276 | 25 ft | 27 kts | 22° |
| 2026-05-06 14:50 | 55.60683 | 12.62360 | 25 ft | 28 kts | 11° |
| 2026-05-06 14:50 | 55.60838 | 12.62473 | 24 ft | 19 kts | 36° |
| 2026-05-06 14:51 | 55.60944 | 12.62632 | 24 ft | 21 kts | 41° |
| 2026-05-06 14:51 | 55.61055 | 12.62808 | 25 ft | 22 kts | 42° |
| 2026-05-06 14:51 | 55.61173 | 12.62997 | 24 ft | 24 kts | 40° |
| 2026-05-06 14:51 | 55.61280 | 12.63156 | 26 ft | 17 kts | 41° |
| 2026-05-06 14:52 | 55.61372 | 12.63296 | 24 ft | 18 kts | 41° |
| 2026-05-06 14:52 | 55.61473 | 12.63453 | 25 ft | 20 kts | 41° |
| 2026-05-06 14:52 | 55.61583 | 12.63623 | 24 ft | 22 kts | 41° |
| 2026-05-06 14:52 | 55.61702 | 12.63807 | 25 ft | 24 kts | 41° |
| 2026-05-06 14:53 | 55.61777 | 12.63921 | 24 ft | 14 kts | 41° |
| 2026-05-06 14:53 | 55.61855 | 12.64043 | 24 ft | 16 kts | 39° |
| 2026-05-06 14:53 | 55.61958 | 12.64142 | 24 ft | 18 kts | 25° |
| 2026-05-06 14:53 | 55.62077 | 12.64241 | 26 ft | 20 kts | 25° |
| 2026-05-06 14:54 | 55.62145 | 12.64297 | 25 ft | 0 kts | 25° |
| 2026-05-06 14:54 | 55.62149 | 12.64301 | 25 ft | 3 kts | 25° |
| 2026-05-06 14:54 | 55.62208 | 12.64350 | 21 ft | 13 kts | 25° |
| 2026-05-06 14:55 | 55.62259 | 12.64439 | 22 ft | 10 kts | 63° |
| 2026-05-06 14:55 | 55.62289 | 12.64555 | 24 ft | 11 kts | 66° |
| 2026-05-06 14:55 | 55.62321 | 12.64688 | 24 ft | 13 kts | 66° |
| 2026-05-06 14:55 | 55.62375 | 12.64784 | 24 ft | 9 kts | 7° |
| 2026-05-06 14:56 | 55.62448 | 12.64776 | 24 ft | 11 kts | 357° |
| 2026-05-06 14:56 | 55.62531 | 12.64771 | 24 ft | 7 kts | 358° |
| 2026-05-06 14:56 | 55.62554 | 12.64816 | 25 ft | 5 kts | 76° |
| 2026-05-06 14:56 | 55.62556 | 12.64874 | 24 ft | 4 kts | 88° |
| 2026-05-06 14:57 | 55.62557 | 12.64893 | 24 ft | 0 kts | 89° |